createdAt,value
2018-06-04T00:02:14.217Z,16.30
2018-06-04T00:04:48.274Z,16.20
2018-06-04T00:07:22.576Z,16.20
2018-06-04T00:09:57.518Z,16.20
2018-06-04T00:12:31.445Z,16.20
2018-06-04T00:15:05.691Z,16.10
2018-06-04T00:17:40.301Z,16.10
2018-06-04T00:20:14.279Z,16.00
2018-06-04T00:22:48.365Z,15.90
2018-06-04T00:27:56.284Z,15.80
2018-06-04T00:30:30.449Z,15.80
2018-06-04T00:33:04.413Z,15.80
2018-06-04T00:35:38.274Z,15.80
2018-06-04T00:38:13.248Z,15.70
2018-06-04T00:40:47.188Z,15.60
2018-06-04T00:43:21.220Z,15.60
2018-06-04T00:45:55.897Z,15.50
2018-06-04T00:48:29.988Z,15.50
2018-06-04T00:51:03.968Z,15.50
2018-06-04T00:53:37.972Z,15.60
2018-06-04T00:56:19.524Z,15.60
2018-06-04T00:58:53.512Z,15.60
2018-06-04T01:01:27.597Z,15.70
2018-06-04T01:04:01.481Z,15.70
2018-06-04T01:06:35.992Z,15.70
2018-06-04T01:09:10.368Z,15.70
2018-06-04T01:11:44.265Z,15.60
2018-06-04T01:14:18.550Z,15.50
2018-06-04T01:16:52.774Z,15.50
2018-06-04T01:19:27.105Z,15.40
2018-06-04T01:22:01.225Z,15.40
2018-06-04T01:24:35.533Z,15.50
2018-06-04T01:27:09.559Z,15.40
2018-06-04T01:29:43.667Z,15.30
2018-06-04T01:32:17.845Z,15.30
2018-06-04T01:34:52.384Z,15.20
2018-06-04T01:37:26.533Z,15.20
2018-06-04T01:40:00.632Z,15.10
2018-06-04T01:45:09.357Z,15.00
2018-06-04T01:47:43.453Z,15.00
2018-06-04T01:50:17.480Z,14.90
2018-06-04T01:52:51.440Z,14.90
2018-06-04T01:55:25.543Z,14.90
2018-06-04T01:57:59.682Z,15.00
2018-06-04T02:03:07.805Z,14.90
2018-06-04T02:05:41.899Z,14.90
2018-06-04T02:08:15.757Z,14.80
2018-06-04T02:10:50.100Z,14.80
2018-06-04T02:13:24.450Z,14.80
2018-06-04T02:15:58.537Z,14.90
2018-06-04T02:18:32.314Z,14.90
2018-06-04T02:21:06.407Z,14.90
2018-06-04T02:23:40.682Z,14.90
2018-06-04T02:26:14.570Z,14.90
2018-06-04T02:28:48.588Z,15.00
2018-06-04T02:31:22.939Z,15.00
2018-06-04T02:33:56.759Z,14.90
2018-06-04T02:36:31.033Z,14.80
2018-06-04T02:39:06.673Z,14.80
2018-06-04T02:41:41.386Z,14.70
2018-06-04T02:44:15.869Z,14.70
2018-06-04T02:46:50.258Z,14.70
2018-06-04T02:49:24.440Z,14.70
2018-06-04T02:51:58.732Z,14.70
2018-06-04T02:54:32.732Z,14.70
2018-06-04T02:57:06.799Z,14.70
2018-06-04T02:59:40.703Z,14.70
2018-06-04T03:02:14.537Z,14.70
2018-06-04T03:04:48.421Z,14.70
2018-06-04T03:07:22.325Z,14.70
2018-06-04T03:09:56.493Z,14.70
2018-06-04T03:12:30.500Z,14.60
2018-06-04T03:15:05.100Z,14.50
2018-06-04T03:17:39.241Z,14.50
2018-06-04T03:20:13.311Z,14.40
2018-06-04T03:22:47.567Z,14.40
2018-06-04T03:25:22.868Z,14.40
2018-06-04T03:27:56.749Z,14.40
2018-06-04T03:30:31.280Z,14.40
2018-06-04T03:33:05.744Z,14.40
2018-06-04T03:35:39.539Z,14.40
2018-06-04T03:38:13.626Z,14.40
2018-06-04T03:40:47.763Z,14.30
2018-06-04T03:43:22.607Z,14.40
2018-06-04T03:45:56.642Z,14.40
2018-06-04T03:48:31.016Z,14.40
2018-06-04T03:51:05.052Z,14.40
2018-06-04T03:53:39.127Z,14.50
2018-06-04T03:56:13.427Z,14.60
2018-06-04T03:58:47.244Z,14.60
2018-06-04T04:01:21.162Z,14.60
2018-06-04T04:03:56.224Z,14.70
2018-06-04T04:06:30.829Z,14.70
2018-06-04T04:09:07.872Z,14.60
2018-06-04T04:11:41.863Z,14.60
2018-06-04T04:14:15.862Z,14.70
2018-06-04T04:16:49.797Z,14.80
2018-06-04T04:19:23.984Z,14.70
2018-06-04T04:21:57.871Z,14.70
2018-06-04T04:24:32.958Z,14.70
2018-06-04T04:27:06.826Z,14.80
2018-06-04T04:29:40.987Z,14.80
2018-06-04T04:32:15.168Z,14.90
2018-06-04T04:34:49.257Z,14.90
2018-06-04T04:37:23.372Z,15.00
2018-06-04T04:39:57.896Z,15.00
2018-06-04T04:42:31.713Z,15.10
2018-06-04T04:45:05.977Z,15.10
2018-06-04T04:47:40.014Z,15.10
2018-06-04T04:50:14.053Z,15.10
2018-06-04T04:52:48.344Z,15.10
2018-06-04T04:55:22.339Z,15.20
2018-06-04T04:57:56.645Z,15.20
2018-06-04T05:00:30.480Z,15.20
2018-06-04T05:03:04.487Z,15.30
2018-06-04T05:05:38.787Z,15.30
2018-06-04T05:08:12.624Z,15.40
2018-06-04T05:10:46.757Z,15.50
2018-06-04T05:13:20.572Z,15.60
2018-06-04T05:15:54.862Z,15.70
2018-06-04T05:18:28.937Z,15.70
2018-06-04T05:21:02.994Z,15.80
2018-06-04T05:23:37.428Z,15.90
2018-06-04T05:26:11.350Z,16.00
2018-06-04T05:28:45.503Z,16.10
2018-06-04T05:31:19.332Z,16.20
2018-06-04T05:33:53.357Z,16.30
2018-06-04T05:36:27.356Z,16.50
2018-06-04T05:39:01.453Z,16.60
2018-06-04T05:41:35.797Z,16.70
2018-06-04T05:44:09.946Z,16.80
2018-06-04T05:51:58.733Z,17.20
2018-06-04T05:54:32.952Z,17.30
2018-06-04T05:57:07.619Z,17.40
2018-06-04T05:59:42.309Z,17.50
2018-06-04T06:02:16.249Z,17.60
2018-06-04T06:04:50.402Z,17.70
2018-06-04T06:07:24.592Z,17.80
2018-06-04T06:09:58.828Z,17.90
2018-06-04T06:12:33.179Z,18.00
2018-06-04T06:15:07.680Z,18.10
2018-06-04T06:17:42.131Z,18.20
2018-06-04T06:20:16.215Z,18.30
2018-06-04T06:22:50.403Z,18.30
2018-06-04T06:25:24.487Z,18.40
2018-06-04T06:27:58.682Z,18.60
2018-06-04T06:30:32.606Z,18.60
2018-06-04T06:33:06.969Z,18.80
2018-06-04T06:35:40.983Z,18.80
2018-06-04T06:38:15.102Z,18.90
2018-06-04T06:40:49.265Z,19.00
2018-06-04T06:43:23.373Z,19.10
2018-06-04T06:45:58.118Z,19.20
2018-06-04T06:48:32.194Z,19.30
2018-06-04T06:51:06.382Z,19.40
2018-06-04T06:53:40.397Z,19.50
2018-06-04T06:56:14.522Z,19.60
2018-06-04T06:58:48.419Z,19.70
2018-06-04T07:03:56.207Z,19.90
2018-06-04T07:06:30.392Z,20.00
2018-06-04T07:09:07.308Z,20.10
2018-06-04T07:11:41.429Z,20.20
2018-06-04T07:14:15.468Z,20.30
2018-06-04T07:16:49.384Z,20.30
2018-06-04T07:19:23.204Z,20.40
2018-06-04T07:21:57.165Z,20.50
2018-06-04T07:24:31.360Z,20.60
2018-06-04T07:27:05.414Z,20.70
2018-06-04T07:29:39.385Z,20.80
2018-06-04T07:32:13.312Z,20.90
2018-06-04T07:34:47.503Z,21.00
2018-06-04T07:37:21.300Z,21.10
2018-06-04T07:39:55.959Z,21.10
2018-06-04T07:42:30.877Z,21.20
2018-06-04T07:45:04.848Z,21.30
2018-06-04T07:47:38.962Z,21.40
2018-06-04T07:50:16.473Z,21.50
2018-06-04T07:55:24.707Z,21.50
2018-06-04T07:58:05.237Z,21.60
2018-06-04T08:00:39.555Z,21.60
2018-06-04T08:03:14.324Z,21.60
2018-06-04T08:05:48.619Z,21.70
2018-06-04T08:08:23.823Z,21.80
2018-06-04T08:10:58.757Z,21.90
2018-06-04T08:13:32.783Z,21.90
2018-06-04T08:16:06.959Z,22.00
2018-06-04T08:18:40.996Z,22.00
2018-06-04T08:21:15.087Z,22.10
2018-06-04T08:23:49.416Z,22.20
2018-06-04T08:26:23.448Z,22.20
2018-06-04T08:28:57.412Z,22.30
2018-06-04T08:31:32.821Z,22.40
2018-06-04T08:34:06.718Z,22.50
2018-06-04T08:36:40.644Z,22.40
2018-06-04T08:39:14.754Z,22.40
2018-06-04T08:41:48.819Z,22.40
2018-06-04T08:44:22.844Z,22.50
2018-06-04T08:46:56.978Z,22.70
2018-06-04T08:49:31.125Z,22.80
2018-06-04T08:52:05.214Z,22.90
2018-06-04T08:54:39.166Z,22.90
2018-06-04T08:57:13.282Z,22.90
2018-06-04T08:59:47.388Z,23.10
2018-06-04T09:02:21.488Z,23.20
2018-06-04T09:04:55.645Z,23.30
2018-06-04T09:07:30.366Z,23.50
2018-06-04T09:10:08.727Z,23.60
2018-06-04T09:12:42.850Z,23.80
2018-06-04T09:15:17.383Z,23.90
2018-06-04T09:17:51.425Z,24.00
2018-06-04T09:20:25.408Z,23.90
2018-06-04T09:28:07.970Z,23.50
2018-06-04T09:30:41.833Z,23.30
2018-06-04T09:33:15.913Z,23.20
2018-06-04T09:35:49.624Z,23.10
2018-06-04T09:38:23.596Z,23.00
2018-06-04T09:40:57.668Z,22.90
2018-06-04T09:43:31.800Z,22.90
2018-06-04T09:46:06.165Z,22.90
2018-06-04T09:48:40.373Z,22.90
2018-06-04T09:51:14.982Z,22.80
2018-06-04T09:53:48.965Z,22.90
2018-06-04T09:56:23.008Z,23.10
2018-06-04T09:58:57.444Z,23.30
2018-06-04T10:01:31.785Z,23.60
2018-06-04T10:04:05.652Z,23.90
2018-06-04T10:06:39.553Z,24.10
2018-06-04T10:09:13.519Z,24.30
2018-06-04T10:11:47.722Z,24.50
2018-06-04T10:14:21.768Z,24.60
2018-06-04T10:16:55.852Z,24.70
2018-06-04T10:19:30.148Z,24.70
2018-06-04T10:22:04.159Z,24.60
2018-06-04T10:24:38.253Z,24.40
2018-06-04T10:27:19.027Z,24.20
2018-06-04T10:29:53.714Z,24.20
2018-06-04T10:32:27.908Z,24.10
2018-06-04T10:35:01.706Z,24.10
2018-06-04T10:37:35.889Z,24.10
2018-06-04T10:40:09.975Z,24.20
2018-06-04T10:42:43.847Z,24.40
2018-06-04T10:45:17.848Z,24.60
2018-06-04T10:47:52.242Z,24.70
2018-06-04T10:50:26.590Z,24.70
2018-06-04T10:53:01.185Z,24.80
2018-06-04T10:55:35.254Z,25.00
2018-06-04T10:58:09.339Z,25.10
2018-06-04T11:00:43.187Z,25.20
2018-06-04T11:03:17.331Z,25.40
2018-06-04T11:05:51.497Z,25.40
2018-06-04T11:08:25.398Z,25.40
2018-06-04T11:10:59.374Z,25.50
2018-06-04T11:13:33.349Z,25.60
2018-06-04T11:16:07.415Z,25.60
2018-06-04T11:18:41.290Z,25.80
2018-06-04T11:21:15.288Z,26.00
2018-06-04T11:23:49.764Z,26.20
2018-06-04T11:26:23.778Z,26.30
2018-06-04T11:28:58.029Z,26.30
2018-06-04T11:31:31.868Z,26.20
2018-06-04T11:34:06.119Z,26.00
2018-06-04T11:36:40.605Z,25.80
2018-06-04T11:39:14.702Z,25.80
2018-06-04T11:41:48.714Z,25.80
2018-06-04T11:44:22.908Z,25.90
2018-06-04T11:46:56.801Z,25.80
2018-06-04T11:49:31.008Z,25.90
2018-06-04T11:52:05.780Z,25.90
2018-06-04T11:54:39.793Z,25.80
2018-06-04T11:57:13.705Z,25.90
2018-06-04T11:59:47.729Z,25.90
2018-06-04T12:02:22.072Z,26.00
2018-06-04T12:04:56.909Z,26.00
2018-06-04T12:07:30.732Z,26.10
2018-06-04T12:10:05.318Z,26.30
2018-06-04T12:12:39.134Z,26.40
2018-06-04T12:15:13.102Z,26.60
2018-06-04T12:17:47.289Z,26.60
2018-06-04T12:20:21.248Z,26.70
2018-06-04T12:22:55.228Z,26.80
2018-06-04T12:25:29.778Z,26.70
2018-06-04T12:28:03.748Z,26.90
2018-06-04T12:30:37.898Z,26.70
2018-06-04T12:33:11.999Z,26.70
2018-06-04T12:35:45.947Z,26.70
2018-06-04T12:38:20.954Z,26.80
2018-06-04T12:40:54.971Z,26.90
2018-06-04T12:43:29.099Z,27.00
2018-06-04T12:46:03.940Z,27.00
2018-06-04T12:48:38.373Z,27.10
2018-06-04T12:51:12.629Z,26.90
2018-06-04T12:56:20.345Z,26.50
2018-06-04T12:58:54.341Z,26.30
2018-06-04T13:01:28.320Z,26.10
2018-06-04T13:04:02.339Z,25.90
2018-06-04T13:06:36.608Z,25.70
2018-06-04T13:09:10.876Z,25.60
2018-06-04T13:11:44.818Z,25.60
2018-06-04T13:14:19.093Z,26.00
2018-06-04T13:16:53.048Z,26.80
2018-06-04T13:19:27.219Z,27.50
2018-06-04T13:22:01.124Z,28.30
2018-06-04T13:24:35.068Z,28.90
2018-06-04T13:27:08.929Z,29.50
2018-06-04T13:29:43.297Z,29.80
2018-06-04T13:32:17.564Z,29.80
2018-06-04T13:34:51.688Z,29.70
2018-06-04T13:37:27.091Z,29.30
2018-06-04T13:40:01.234Z,28.80
2018-06-04T13:42:35.359Z,28.50
2018-06-04T13:45:09.607Z,28.30
2018-06-04T13:47:43.852Z,28.30
2018-06-04T13:50:17.933Z,28.10
2018-06-04T13:52:51.964Z,27.80
2018-06-04T13:55:25.867Z,27.40
2018-06-04T13:58:00.657Z,27.10
2018-06-04T14:00:34.913Z,26.60
2018-06-04T14:03:09.351Z,26.20
2018-06-04T14:05:43.633Z,25.90
2018-06-04T14:08:17.867Z,25.70
2018-06-04T14:10:52.442Z,25.70
2018-06-04T14:13:27.074Z,26.10
2018-06-04T14:16:01.800Z,26.60
2018-06-04T14:18:35.819Z,27.00
2018-06-04T14:21:09.782Z,27.30
2018-06-04T14:23:43.812Z,27.40
2018-06-04T14:26:17.875Z,27.30
2018-06-04T14:28:51.792Z,27.40
2018-06-04T14:31:25.904Z,27.50
2018-06-04T14:33:59.909Z,27.70
2018-06-04T14:41:43.004Z,27.60
2018-06-04T14:46:51.321Z,27.40
2018-06-04T14:49:25.592Z,27.00
2018-06-04T14:51:59.719Z,26.70
2018-06-04T14:54:33.674Z,26.70
2018-06-04T14:57:07.727Z,26.40
2018-06-04T14:59:41.607Z,26.20
2018-06-04T15:02:15.917Z,26.10
2018-06-04T15:04:51.093Z,26.10
2018-06-04T15:07:25.257Z,26.10
2018-06-04T15:09:59.557Z,26.20
2018-06-04T15:12:33.568Z,26.30
2018-06-04T15:15:07.844Z,26.40
2018-06-04T15:17:42.060Z,26.70
2018-06-04T15:20:15.965Z,26.80
2018-06-04T15:22:50.143Z,26.60
2018-06-04T15:25:23.860Z,26.50
2018-06-04T15:27:57.737Z,26.40
2018-06-04T15:30:31.732Z,26.40
2018-06-04T15:33:05.692Z,26.50
2018-06-04T15:35:39.764Z,26.50
2018-06-04T15:38:14.198Z,26.70
2018-06-04T15:40:48.279Z,27.00
2018-06-04T15:43:22.264Z,27.30
2018-06-04T15:45:57.407Z,27.40
2018-06-04T15:48:31.323Z,27.60
2018-06-04T15:53:40.314Z,27.80
2018-06-04T15:56:14.449Z,28.00
2018-06-04T15:58:48.484Z,28.10
2018-06-04T16:01:23.398Z,28.20
2018-06-04T16:03:57.508Z,28.10
2018-06-04T16:06:31.605Z,28.10
2018-06-04T16:09:07.115Z,27.70
2018-06-04T16:11:41.197Z,27.20
2018-06-04T16:14:15.072Z,26.90
2018-06-04T16:16:49.247Z,26.60
2018-06-04T16:19:23.739Z,26.80
2018-06-04T16:21:58.023Z,27.20
2018-06-04T16:24:32.539Z,27.20
2018-06-04T16:27:10.722Z,27.60
2018-06-04T16:29:45.017Z,28.10
2018-06-04T16:32:19.137Z,29.00
2018-06-04T16:34:53.928Z,29.20
2018-06-04T16:37:28.197Z,28.90
2018-06-04T16:40:02.557Z,28.80
2018-06-04T16:42:36.632Z,29.00
2018-06-04T16:45:10.806Z,28.90
2018-06-04T16:47:45.004Z,29.00
2018-06-04T16:50:19.331Z,28.90
2018-06-04T16:52:53.401Z,28.70
2018-06-04T16:55:27.619Z,28.40
2018-06-04T16:58:02.099Z,28.10
2018-06-04T17:00:36.738Z,27.70
2018-06-04T17:03:11.664Z,27.20
2018-06-04T17:05:46.081Z,26.80
2018-06-04T17:08:20.967Z,26.40
2018-06-04T17:10:55.177Z,26.00
2018-06-04T17:13:30.151Z,25.80
2018-06-04T17:16:04.829Z,25.60
2018-06-04T17:18:39.453Z,25.20
2018-06-04T17:21:17.872Z,25.00
2018-06-04T17:23:53.767Z,24.90
2018-06-04T17:26:28.870Z,24.80
2018-06-04T17:29:03.863Z,24.60
2018-06-04T17:31:38.648Z,24.20
2018-06-04T17:34:13.003Z,24.10
2018-06-04T17:36:47.839Z,24.00
2018-06-04T17:39:23.503Z,23.90
2018-06-04T17:42:03.821Z,23.90
2018-06-04T17:44:37.864Z,23.90
2018-06-04T17:47:11.947Z,23.80
2018-06-04T17:49:46.280Z,23.80
2018-06-04T17:52:20.756Z,23.70
2018-06-04T17:57:28.933Z,23.50
2018-06-04T18:00:03.995Z,23.40
2018-06-04T18:02:38.238Z,23.40
2018-06-04T18:05:12.687Z,23.40
2018-06-04T18:07:47.161Z,23.30
2018-06-04T18:10:21.159Z,23.30
2018-06-04T18:12:55.100Z,23.10
2018-06-04T18:18:03.820Z,23.00
2018-06-04T18:20:38.500Z,23.00
2018-06-04T18:23:12.651Z,22.80
2018-06-04T18:25:47.087Z,22.70
2018-06-04T18:28:21.772Z,22.60
2018-06-04T18:30:55.828Z,22.50
2018-06-04T18:33:30.057Z,22.50
2018-06-04T18:36:04.166Z,22.40
2018-06-04T18:38:38.549Z,22.30
2018-06-04T18:41:13.052Z,22.20
2018-06-04T18:43:51.444Z,22.20
2018-06-04T18:46:26.179Z,22.10
2018-06-04T18:49:00.541Z,22.00
2018-06-04T18:51:34.755Z,21.90
2018-06-04T18:54:09.296Z,21.80
2018-06-04T18:56:47.735Z,21.80
2018-06-04T18:59:22.148Z,21.70
2018-06-04T19:01:56.128Z,21.60
2018-06-04T19:04:30.383Z,21.50
2018-06-04T19:07:04.698Z,21.50
2018-06-04T19:09:38.999Z,21.40
2018-06-04T19:12:13.501Z,21.40
2018-06-04T19:14:47.643Z,21.30
2018-06-04T19:17:22.389Z,21.20
2018-06-04T19:19:56.833Z,21.20
2018-06-04T19:25:05.787Z,21.00
2018-06-04T19:27:44.204Z,20.90
2018-06-04T19:30:18.779Z,20.80
2018-06-04T19:32:52.921Z,20.80
2018-06-04T19:35:27.602Z,20.70
2018-06-04T19:38:03.005Z,20.60
2018-06-04T19:40:37.150Z,20.50
2018-06-04T19:43:11.318Z,20.50
2018-06-04T19:45:45.624Z,20.40
2018-06-04T19:48:19.834Z,20.30
2018-06-04T19:50:54.452Z,20.20
2018-06-04T19:53:28.967Z,20.10
2018-06-04T19:56:03.552Z,20.10
2018-06-04T19:58:37.788Z,20.00
2018-06-04T20:01:12.491Z,19.90
2018-06-04T20:03:46.668Z,19.80
2018-06-04T20:06:22.050Z,19.70
2018-06-04T20:08:56.168Z,19.60
2018-06-04T20:11:30.695Z,19.60
2018-06-04T20:14:05.358Z,19.50
2018-06-04T20:19:14.618Z,19.40
2018-06-04T20:21:49.315Z,19.40
2018-06-04T20:24:23.420Z,19.30
2018-06-04T20:32:05.975Z,19.10
2018-06-04T20:34:40.070Z,19.00
2018-06-04T20:37:14.047Z,19.00
2018-06-04T20:39:48.672Z,19.00
2018-06-04T20:42:22.818Z,18.90
2018-06-04T20:44:56.759Z,18.80
2018-06-04T20:47:31.438Z,18.80
2018-06-04T20:50:05.936Z,18.70
2018-06-04T20:52:40.070Z,18.70
2018-06-04T20:55:14.903Z,18.70
2018-06-04T20:57:48.938Z,18.70
2018-06-04T21:00:22.938Z,18.60
2018-06-04T21:02:57.298Z,18.50
2018-06-04T21:05:32.250Z,18.50
2018-06-04T21:08:06.595Z,18.40
2018-06-04T21:10:40.947Z,18.40
2018-06-04T21:13:15.552Z,18.40
2018-06-04T21:15:49.605Z,18.30
2018-06-04T21:18:23.703Z,18.30
2018-06-04T21:20:57.947Z,18.20
2018-06-04T21:23:32.419Z,18.20
2018-06-04T21:26:06.712Z,18.10
2018-06-04T21:28:41.713Z,18.10
2018-06-04T21:31:15.848Z,18.00
2018-06-04T21:33:50.905Z,17.90
2018-06-04T21:36:24.944Z,17.90
2018-06-04T21:38:58.848Z,17.90
2018-06-04T21:41:33.546Z,17.80
2018-06-04T21:44:08.249Z,17.80
2018-06-04T21:46:42.425Z,17.70
2018-06-04T21:49:18.494Z,17.70
2018-06-04T21:51:52.743Z,17.60
2018-06-04T21:54:27.023Z,17.60
2018-06-04T21:57:01.261Z,17.50
2018-06-04T21:59:38.557Z,17.40
2018-06-04T22:02:12.659Z,17.40
2018-06-04T22:04:46.599Z,17.30
2018-06-04T22:07:20.741Z,17.30
2018-06-04T22:09:54.943Z,17.20
2018-06-04T22:12:29.488Z,17.20
2018-06-04T22:15:03.883Z,17.20
2018-06-04T22:17:38.391Z,17.10
2018-06-04T22:20:12.405Z,17.10
2018-06-04T22:22:46.533Z,17.00
2018-06-04T22:25:20.857Z,17.00
2018-06-04T22:27:54.887Z,16.90
2018-06-04T22:30:29.298Z,16.90
2018-06-04T22:33:03.798Z,16.90
2018-06-04T22:35:38.063Z,16.80
2018-06-04T22:38:12.508Z,16.80
2018-06-04T22:43:20.568Z,16.80
2018-06-04T22:45:54.680Z,16.70
2018-06-04T22:48:29.062Z,16.70
2018-06-04T22:51:03.850Z,16.60
2018-06-04T22:53:38.109Z,16.50
2018-06-04T22:56:12.659Z,16.50
2018-06-04T22:58:47.385Z,16.40
2018-06-04T23:01:21.526Z,16.40
2018-06-04T23:03:55.328Z,16.40
2018-06-04T23:06:30.058Z,16.30
2018-06-04T23:09:06.483Z,16.30
2018-06-04T23:11:40.677Z,16.30
2018-06-04T23:14:15.034Z,16.30
2018-06-04T23:16:48.928Z,16.30
2018-06-04T23:19:23.007Z,16.30
2018-06-04T23:21:57.158Z,16.20
2018-06-04T23:24:31.038Z,16.20
2018-06-04T23:27:05.203Z,16.20
2018-06-04T23:29:39.557Z,16.10
2018-06-04T23:32:13.692Z,16.10
2018-06-04T23:34:47.614Z,16.10
2018-06-04T23:37:21.555Z,16.10
2018-06-04T23:39:55.613Z,16.10
2018-06-04T23:42:30.654Z,16.00
2018-06-04T23:45:04.488Z,16.00
2018-06-04T23:47:38.857Z,16.00
2018-06-04T23:50:12.818Z,16.00
2018-06-04T23:52:46.956Z,16.00
2018-06-04T23:55:20.892Z,16.00
2018-06-04T23:57:54.966Z,15.90
